Time;durP1;ratioP1;P1;durP2;ratioP2;P2;SDS_P1;SDS_P2;PMS_P1;PMS_P2;Temp;Humidity;BMP_temperature;BMP_pressure;BME280_temperature;BME280_humidity;BME280_pressure;Samples;Min_cycle;Max_cycle;Signal;HPM_P1;HPM_P2
2021/12/22 00:01:19;;;;;;;0.50;0.10;;;1.00;1.00;;;;;;4974296;28;20504;-69
2021/12/22 00:03:47;;;;;;;0.50;0.10;;;0.90;1.00;;;;;;4977721;28;20450;-68
2021/12/22 00:06:19;;;;;;;0.50;0.10;;;0.90;1.00;;;;;;4977056;28;20442;-70
2021/12/22 00:08:47;;;;;;;0.50;0.10;;;0.90;1.00;;;;;;4977254;28;20472;-69
2021/12/22 00:11:15;;;;;;;0.50;0.10;;;0.90;1.00;;;;;;4979245;28;20567;-68
2021/12/22 00:13:43;;;;;;;0.50;0.10;;;0.90;1.00;;;;;;4978621;28;20445;-68
2021/12/22 00:16:12;;;;;;;0.50;0.10;;;0.90;1.00;;;;;;4977319;28;20457;-68
2021/12/22 00:18:40;;;;;;;0.50;0.10;;;0.80;1.00;;;;;;4977445;28;20485;-69
2021/12/22 00:21:08;;;;;;;0.50;0.10;;;0.80;1.00;;;;;;4976978;28;20454;-69
2021/12/22 00:23:36;;;;;;;0.50;0.10;;;0.80;1.00;;;;;;4977252;28;20944;-68
2021/12/22 00:26:05;;;;;;;0.50;0.10;;;0.80;1.00;;;;;;4977728;28;20556;-68
2021/12/22 00:28:39;;;;;;;0.50;0.10;;;0.80;1.00;;;;;;4977491;28;20446;-69
2021/12/22 00:31:11;;;;;;;0.50;0.10;;;0.80;1.00;;;;;;4977034;28;20450;-69
2021/12/22 00:33:48;;;;;;;0.50;0.10;;;0.80;1.00;;;;;;4976969;28;20438;-69
2021/12/22 00:36:17;;;;;;;0.50;0.10;;;0.90;1.00;;;;;;4976253;28;20983;-69
2021/12/22 00:38:46;;;;;;;0.50;0.20;;;0.90;1.00;;;;;;4976334;28;20485;-69
2021/12/22 00:41:15;;;;;;;0.50;0.10;;;0.90;1.00;;;;;;4976930;28;20450;-69
2021/12/22 00:43:42;;;;;;;0.50;0.10;;;0.90;1.00;;;;;;4976656;28;20451;-69
2021/12/22 00:46:12;;;;;;;0.50;0.10;;;0.90;1.00;;;;;;4975988;28;20445;-68
2021/12/22 00:48:42;;;;;;;0.60;0.37;;;0.80;1.00;;;;;;4975834;28;20438;-69
2021/12/22 00:51:10;;;;;;;4.07;3.87;;;0.80;1.00;;;;;;4976584;28;20940;-69
2021/12/22 00:53:38;;;;;;;0.50;0.10;;;0.80;1.00;;;;;;4976740;28;20446;-69
2021/12/22 00:56:07;;;;;;;0.50;0.10;;;0.80;1.00;;;;;;4976509;28;20451;-69
2021/12/22 00:58:35;;;;;;;0.50;0.10;;;0.80;1.00;;;;;;4976543;28;20485;-69
2021/12/22 01:01:03;;;;;;;0.50;0.10;;;0.70;1.00;;;;;;4976152;28;20545;-69
2021/12/22 01:03:34;;;;;;;13.00;5.17;;;0.70;1.00;;;;;;4976031;28;20549;-69
2021/12/22 01:06:04;;;;;;;0.50;0.10;;;0.70;1.00;;;;;;4975932;28;20529;-69
2021/12/22 01:08:35;;;;;;;0.50;0.10;;;0.70;1.00;;;;;;4976352;28;20533;-70
2021/12/22 01:11:03;;;;;;;0.50;0.10;;;0.70;1.00;;;;;;4976294;28;20794;-70
2021/12/22 01:13:30;;;;;;;0.50;0.10;;;0.60;1.00;;;;;;4975684;28;20443;-68
2021/12/22 01:15:58;;;;;;;0.50;0.20;;;0.60;1.00;;;;;;4975884;28;20447;-67
2021/12/22 01:18:31;;;;;;;0.50;0.10;;;0.50;1.00;;;;;;4975779;28;20500;-69
2021/12/22 01:21:08;;;;;;;0.70;0.70;;;0.50;1.00;;;;;;4972655;28;20512;-69
2021/12/22 01:23:48;;;;;;;0.50;0.10;;;0.50;1.00;;;;;;4975838;28;20446;-69
2021/12/22 01:26:16;;;;;;;0.50;0.10;;;0.50;1.00;;;;;;4975534;28;20446;-69
2021/12/22 01:28:44;;;;;;;0.50;0.10;;;0.40;1.00;;;;;;4975177;28;20454;-69
2021/12/22 01:31:15;;;;;;;1.00;0.57;;;0.40;1.00;;;;;;4976114;28;20442;-69
2021/12/22 01:33:43;;;;;;;0.50;0.10;;;0.30;1.00;;;;;;4975639;28;20451;-68
2021/12/22 01:36:11;;;;;;;0.50;0.20;;;0.30;1.00;;;;;;4975350;28;20456;-69
2021/12/22 01:38:41;;;;;;;0.50;0.10;;;0.30;1.00;;;;;;4975430;28;20486;-69
2021/12/22 01:41:09;;;;;;;0.50;0.10;;;0.30;1.00;;;;;;4956158;28;20446;-69
2021/12/22 01:43:36;;;;;;;0.50;0.10;;;0.30;1.00;;;;;;4956478;28;20451;-69
2021/12/22 01:46:32;;;;;;;0.50;0.10;;;0.40;1.00;;;;;;4956028;28;20439;-69
2021/12/22 01:49:10;;;;;;;0.50;0.10;;;0.40;1.00;;;;;;4972047;28;20478;-68
2021/12/22 01:51:45;;;;;;;0.60;0.43;;;0.40;1.00;;;;;;4975536;28;20868;-70
2021/12/22 01:54:29;;;;;;;0.50;0.10;;;0.40;1.00;;;;;;4975624;28;20941;-69
2021/12/22 01:57:01;;;;;;;0.50;0.10;;;0.40;1.00;;;;;;4975365;28;20441;-69
2021/12/22 01:59:30;;;;;;;0.50;0.10;;;0.30;1.00;;;;;;4974889;28;20490;-68
2021/12/22 02:01:58;;;;;;;0.50;0.10;;;0.30;1.00;;;;;;4974524;28;20821;-68
2021/12/22 02:04:26;;;;;;;0.50;0.10;;;0.30;1.00;;;;;;4975141;28;20444;-67
2021/12/22 02:06:54;;;;;;;0.50;0.10;;;0.30;1.00;;;;;;4975155;28;20447;-68
2021/12/22 02:09:37;;;;;;;0.50;0.10;;;0.40;1.00;;;;;;4975548;28;20542;-69
2021/12/22 02:12:07;;;;;;;0.50;0.10;;;0.40;1.00;;;;;;4975633;28;20542;-69
2021/12/22 02:14:35;;;;;;;0.50;0.17;;;0.40;1.00;;;;;;4974630;28;20449;-69
2021/12/22 02:17:07;;;;;;;0.50;0.10;;;0.40;1.00;;;;;;4975134;28;20461;-68
2021/12/22 02:19:38;;;;;;;0.50;0.10;;;0.30;1.00;;;;;;4974990;28;20489;-69
2021/12/22 02:22:10;;;;;;;0.50;0.10;;;0.30;1.00;;;;;;4974722;28;20449;-68
2021/12/22 02:24:39;;;;;;;0.50;0.10;;;0.30;1.00;;;;;;4974058;28;21136;-67
2021/12/22 02:27:12;;;;;;;0.50;0.10;;;0.20;1.00;;;;;;4974781;28;20446;-69
2021/12/22 02:29:46;;;;;;;0.50;0.20;;;0.20;1.00;;;;;;4975445;28;20469;-69
2021/12/22 02:32:28;;;;;;;0.50;0.10;;;0.30;1.00;;;;;;4975568;28;20442;-69
2021/12/22 02:35:02;;;;;;;0.50;0.10;;;0.70;1.00;;;;;;4975052;28;20446;-68
2021/12/22 02:37:31;;;;;;;0.50;0.10;;;0.20;1.00;;;;;;4975003;28;20453;-69
2021/12/22 02:40:10;;;;;;;0.50;0.10;;;0.20;1.00;;;;;;4975378;28;20888;-69
2021/12/22 02:42:38;;;;;;;0.50;0.10;;;0.20;1.00;;;;;;4975289;28;20466;-68
2021/12/22 02:45:07;;;;;;;0.63;0.40;;;0.20;1.00;;;;;;4974116;28;20454;-68
2021/12/22 02:47:35;;;;;;;0.50;0.10;;;;;;;;;;4974313;28;20458;-69
2021/12/22 02:50:07;;;;;;;0.50;0.10;;;0.10;1.00;;;;;;4973991;28;20494;-69
2021/12/22 02:52:47;;;;;;;0.50;0.10;;;;;;;;;;4973916;28;20968;-69
2021/12/22 02:55:15;;;;;;;0.50;0.10;;;0.10;1.00;;;;;;4973692;28;20442;-69
2021/12/22 02:57:46;;;;;;;0.50;0.10;;;0.10;1.00;;;;;;4973895;28;20457;-69
2021/12/22 03:00:33;;;;;;;0.50;0.10;;;0.10;1.00;;;;;;4973122;28;21023;-69
2021/12/22 03:03:08;;;;;;;0.50;0.10;;;0.10;1.00;;;;;;4974121;28;20581;-69
2021/12/22 03:05:39;;;;;;;0.50;0.10;;;0.10;1.00;;;;;;4973819;28;20442;-69
2021/12/22 03:08:07;;;;;;;0.50;0.10;;;0.10;1.00;;;;;;4973915;28;20456;-69
2021/12/22 03:10:35;;;;;;;0.50;0.10;;;0.10;1.00;;;;;;4973782;28;20471;-69
2021/12/22 03:13:04;;;;;;;0.50;0.10;;;0.10;1.00;;;;;;4973566;28;20459;-69
2021/12/22 03:15:33;;;;;;;0.50;0.10;;;0.00;1.00;;;;;;4973641;28;20441;-69
2021/12/22 03:18:02;;;;;;;0.50;0.10;;;0.00;1.00;;;;;;4968797;28;20513;-69
2021/12/22 03:20:30;;;;;;;0.50;0.10;;;0.00;1.00;;;;;;4973528;28;20488;-68
2021/12/22 03:22:59;;;;;;;0.50;0.10;;;0.00;1.00;;;;;;4973811;28;20620;-68
2021/12/22 03:25:27;;;;;;;0.50;0.10;;;0.00;1.00;;;;;;4973015;28;20454;-68
2021/12/22 03:27:57;;;;;;;0.50;0.10;;;0.00;1.00;;;;;;4972521;28;20442;-69
2021/12/22 03:30:27;;;;;;;0.50;0.10;;;0.00;1.00;;;;;;4973695;28;20552;-69
2021/12/22 03:32:55;;;;;;;0.50;0.10;;;-0.10;1.00;;;;;;4974722;28;20875;-68
2021/12/22 03:35:23;;;;;;;0.50;0.10;;;-0.10;1.00;;;;;;4974520;28;20449;-68
2021/12/22 03:37:54;;;;;;;0.50;0.10;;;-0.10;1.00;;;;;;4974510;28;20445;-68
2021/12/22 03:40:25;;;;;;;0.50;0.10;;;-0.10;1.00;;;;;;4973619;28;20485;-68
2021/12/22 03:42:53;;;;;;;0.87;0.77;;;-0.10;1.00;;;;;;4973621;28;20446;-68
2021/12/22 03:45:21;;;;;;;0.50;0.10;;;-0.10;1.00;;;;;;4974854;28;20452;-69
2021/12/22 03:47:49;;;;;;;0.50;0.10;;;-0.20;1.00;;;;;;4976541;28;20470;-68
2021/12/22 03:50:18;;;;;;;1.80;1.70;;;-0.30;1.00;;;;;;4975989;28;20468;-70
2021/12/22 03:52:47;;;;;;;0.50;0.10;;;-0.30;1.00;;;;;;4975765;28;20446;-68
2021/12/22 03:55:16;;;;;;;0.50;0.10;;;-0.30;1.00;;;;;;4974779;28;20453;-68
2021/12/22 03:57:45;;;;;;;3.73;1.23;;;-0.40;1.00;;;;;;4974579;28;20451;-68
2021/12/22 04:00:14;;;;;;;0.50;0.10;;;-0.40;1.00;;;;;;4973110;28;20565;-69
2021/12/22 04:02:42;;;;;;;0.50;0.10;;;-0.40;1.00;;;;;;4973623;28;20446;-68
2021/12/22 04:05:11;;;;;;;0.50;0.10;;;-0.40;1.00;;;;;;4973188;28;21147;-68
2021/12/22 04:07:39;;;;;;;0.50;0.10;;;-0.40;1.00;;;;;;4973992;28;20460;-72
2021/12/22 04:10:19;;;;;;;0.50;0.10;;;-0.40;1.00;;;;;;4976650;28;20478;-69
2021/12/22 04:12:50;;;;;;;0.50;0.10;;;-0.40;1.00;;;;;;4976280;28;20446;-68
2021/12/22 04:15:19;;;;;;;0.50;0.10;;;-0.40;1.00;;;;;;4974345;28;20450;-69
2021/12/22 04:17:47;;;;;;;0.50;0.10;;;-0.40;1.00;;;;;;4973500;28;20449;-68
2021/12/22 04:20:14;;;;;;;0.50;0.10;;;-0.40;1.00;;;;;;4973225;28;20834;-68
2021/12/22 04:22:43;;;;;;;0.50;0.27;;;-0.50;1.00;;;;;;4973223;28;20476;-68
2021/12/22 04:25:19;;;;;;;0.50;0.10;;;-0.50;1.00;;;;;;4972682;28;20458;-68
2021/12/22 04:27:49;;;;;;;0.60;0.40;;;-0.50;1.00;;;;;;4972989;28;20445;-68
2021/12/22 04:30:18;;;;;;;0.50;0.10;;;-0.50;1.00;;;;;;4974959;28;20469;-69
2021/12/22 04:32:46;;;;;;;0.50;0.10;;;-0.50;1.00;;;;;;4974881;28;20456;-69
2021/12/22 04:35:14;;;;;;;0.50;0.10;;;-0.50;1.00;;;;;;4975844;28;20454;-69
2021/12/22 04:37:41;;;;;;;0.50;0.20;;;-0.50;1.00;;;;;;4976082;28;20446;-68
2021/12/22 04:40:10;;;;;;;0.50;0.10;;;-0.50;1.00;;;;;;4975957;28;20484;-69
2021/12/22 04:42:38;;;;;;;0.50;0.10;;;-0.50;1.00;;;;;;4974242;28;20450;-68
2021/12/22 04:45:08;;;;;;;0.50;0.20;;;-0.50;1.00;;;;;;4972325;28;20461;-68
2021/12/22 04:47:37;;;;;;;0.50;0.10;;;-0.50;1.00;;;;;;4990908;23;20493;-65
2021/12/22 04:50:10;;;;;;;0.50;0.10;;;-0.50;1.00;;;;;;4996094;28;20434;-66
2021/12/22 04:52:43;;;;;;;0.50;0.10;;;-0.60;1.00;;;;;;4996206;28;20468;-66
2021/12/22 04:55:11;;;;;;;0.50;0.30;;;-0.60;1.00;;;;;;4995906;28;20441;-66
2021/12/22 04:57:39;;;;;;;0.50;0.10;;;-0.60;1.00;;;;;;4995153;28;20472;-66
2021/12/22 05:00:12;;;;;;;2.30;1.67;;;-0.60;1.00;;;;;;4995926;28;20476;-66
2021/12/22 05:02:40;;;;;;;0.67;0.40;;;-0.60;1.00;;;;;;4996091;28;20437;-66
2021/12/22 05:05:08;;;;;;;0.50;0.10;;;-0.70;1.00;;;;;;4995284;28;20454;-66
2021/12/22 05:07:36;;;;;;;0.50;0.10;;;-0.50;1.00;;;;;;4995481;28;20850;-66
2021/12/22 05:10:05;;;;;;;0.50;0.10;;;-1.80;1.00;;;;;;4995630;28;20808;-66
2021/12/22 05:12:33;;;;;;;0.50;0.10;;;-0.50;1.00;;;;;;4995009;28;20449;-65
2021/12/22 05:15:01;;;;;;;0.50;0.10;;;-0.60;1.00;;;;;;4995080;28;20456;-65
2021/12/22 05:17:50;;;;;;;1.17;1.13;;;-0.60;1.00;;;;;;4995196;28;20472;-65
2021/12/22 05:20:18;;;;;;;0.50;0.20;;;-0.60;1.00;;;;;;4995673;28;20507;-66
2021/12/22 05:22:47;;;;;;;0.50;0.10;;;-0.60;1.00;;;;;;4995780;28;20445;-66
2021/12/22 05:25:15;;;;;;;0.70;0.50;;;-0.60;1.00;;;;;;4993608;28;20966;-65
2021/12/22 05:27:43;;;;;;;0.50;0.10;;;-0.70;1.00;;;;;;4975988;28;20470;-66
2021/12/22 05:30:13;;;;;;;0.50;0.10;;;-0.70;1.00;;;;;;4976116;28;20439;-67
2021/12/22 05:32:42;;;;;;;3.10;1.17;;;-0.80;1.00;;;;;;4991059;28;20449;-67
2021/12/22 05:35:11;;;;;;;0.50;0.10;;;-0.80;1.00;;;;;;4994846;28;20437;-65
2021/12/22 05:37:41;;;;;;;0.50;0.20;;;-0.80;1.00;;;;;;4995312;28;20458;-66
2021/12/22 05:40:10;;;;;;;0.50;0.10;;;-0.80;1.00;;;;;;4994768;28;20477;-67
2021/12/22 05:42:38;;;;;;;0.50;0.10;;;-0.80;1.00;;;;;;4995446;28;20455;-66
2021/12/22 05:45:07;;;;;;;0.50;0.10;;;-0.80;1.00;;;;;;4994946;28;20455;-66
2021/12/22 05:47:35;;;;;;;0.50;0.10;;;-0.80;1.00;;;;;;4995086;28;20484;-66
2021/12/22 05:50:07;;;;;;;0.50;0.10;;;-0.80;1.00;;;;;;4995190;28;20453;-66
2021/12/22 05:52:35;;;;;;;0.50;0.10;;;-0.80;1.00;;;;;;4995004;28;20441;-66
2021/12/22 05:55:04;;;;;;;3.13;3.03;;;-0.80;1.00;;;;;;4978151;28;20458;-66
2021/12/22 05:57:32;;;;;;;0.50;0.10;;;-0.70;1.00;;;;;;4990821;28;21021;-64
2021/12/22 06:00:00;;;;;;;0.50;0.10;;;-0.80;1.00;;;;;;4993994;28;20437;-66
2021/12/22 06:02:28;;;;;;;1.30;1.30;;;-0.70;1.00;;;;;;4995342;28;20441;-66
2021/12/22 06:04:56;;;;;;;0.50;0.10;;;-0.80;1.00;;;;;;4995066;28;20468;-66
2021/12/22 06:07:25;;;;;;;0.50;0.10;;;-0.70;1.00;;;;;;4991201;28;20482;-66
2021/12/22 06:09:53;;;;;;;0.50;0.10;;;-0.70;1.00;;;;;;4990802;28;20476;-66
2021/12/22 06:12:21;;;;;;;0.50;0.10;;;-0.80;1.00;;;;;;4993563;28;20463;-65
2021/12/22 06:14:49;;;;;;;0.50;0.10;;;-0.70;1.00;;;;;;4993754;28;20460;-67
2021/12/22 06:17:17;;;;;;;0.50;0.10;;;-0.60;1.00;;;;;;4986788;28;20446;-65
2021/12/22 06:19:44;;;;;;;0.50;0.10;;;-0.60;1.00;;;;;;4994137;28;20459;-64
2021/12/22 06:22:12;;;;;;;0.50;0.20;;;-0.60;1.00;;;;;;4994738;28;20509;-65
2021/12/22 06:24:41;;;;;;;0.50;0.20;;;-0.50;1.00;;;;;;4994253;28;20441;-66
2021/12/22 06:27:09;;;;;;;0.50;0.10;;;-0.60;1.00;;;;;;4992867;28;20449;-66
2021/12/22 06:29:37;;;;;;;0.50;0.10;;;-0.60;1.00;;;;;;4991904;28;20453;-67
2021/12/22 06:32:06;;;;;;;0.50;0.10;;;-0.60;1.00;;;;;;4993624;28;20449;-64
2021/12/22 06:34:33;;;;;;;0.50;0.10;;;-0.60;1.00;;;;;;4993420;28;20453;-68
2021/12/22 06:37:01;;;;;;;0.50;0.10;;;-0.60;1.00;;;;;;4986032;28;20462;-65
2021/12/22 06:39:29;;;;;;;0.50;0.10;;;-0.60;1.00;;;;;;4992320;28;20818;-67
2021/12/22 06:41:59;;;;;;;0.60;0.20;;;-0.70;1.00;;;;;;4989710;28;20545;-66
2021/12/22 06:44:27;;;;;;;0.70;0.70;;;-0.70;1.00;;;;;;4987317;28;20449;-66
2021/12/22 06:46:54;;;;;;;0.50;0.30;;;-0.80;1.00;;;;;;4993215;28;20441;-66
2021/12/22 06:49:23;;;;;;;0.50;0.10;;;-0.90;1.00;;;;;;4993090;28;20449;-66
2021/12/22 06:51:51;;;;;;;0.50;0.10;;;-0.90;1.00;;;;;;4994265;28;20449;-68
2021/12/22 06:54:19;;;;;;;0.50;0.10;;;-0.90;1.00;;;;;;4994505;28;20449;-66
2021/12/22 06:56:47;;;;;;;0.50;0.20;;;-1.00;1.00;;;;;;4990634;28;20465;-66
2021/12/22 06:59:16;;;;;;;0.50;0.30;;;-1.10;1.00;;;;;;4994042;28;20464;-65
2021/12/22 07:01:45;;;;;;;0.50;0.20;;;-1.10;1.00;;;;;;4994448;28;21010;-65
2021/12/22 07:04:13;;;;;;;0.50;0.10;;;-1.10;1.00;;;;;;4993778;28;20452;-66
2021/12/22 07:06:41;;;;;;;0.50;0.10;;;-1.10;1.00;;;;;;4993965;28;20912;-66
2021/12/22 07:09:09;;;;;;;0.50;0.10;;;-1.10;1.00;;;;;;4992675;28;20991;-66
2021/12/22 07:11:39;;;;;;;0.97;0.97;;;0.00;1.00;;;;;;4993594;28;20449;-67
2021/12/22 07:14:09;;;;;;;0.50;0.30;;;-1.00;1.00;;;;;;4993562;28;20453;-65
2021/12/22 07:16:39;;;;;;;0.50;0.10;;;-0.90;1.00;;;;;;4994052;28;20445;-65
2021/12/22 07:19:07;;;;;;;0.50;0.10;;;-0.90;1.00;;;;;;4987376;28;20481;-66
2021/12/22 07:21:35;;;;;;;0.50;0.10;;;-0.90;1.00;;;;;;4988989;28;21009;-64
2021/12/22 07:24:04;;;;;;;0.50;0.10;;;-0.90;1.00;;;;;;4989871;28;20446;-65
2021/12/22 07:26:33;;;;;;;0.50;0.10;;;-0.90;1.00;;;;;;4974430;28;20449;-64
2021/12/22 07:29:01;;;;;;;0.50;0.10;;;-0.90;1.00;;;;;;4974267;28;20466;-66
2021/12/22 07:31:28;;;;;;;0.50;0.10;;;-0.90;1.00;;;;;;4973880;28;20442;-64
2021/12/22 07:34:11;;;;;;;0.50;0.20;;;-1.00;1.00;;;;;;4988349;28;20465;-67
2021/12/22 07:36:46;;;;;;;0.50;0.10;;;-1.00;1.00;;;;;;4992909;28;20824;-65
2021/12/22 07:39:14;;;;;;;0.50;0.10;;;-1.00;1.00;;;;;;4991827;28;20459;-66
2021/12/22 07:41:42;;;;;;;0.50;0.10;;;0.10;1.00;;;;;;4981876;28;20560;-66
2021/12/22 07:44:09;;;;;;;0.50;0.10;;;-0.90;1.00;;;;;;4973657;28;20458;-65
2021/12/22 07:46:37;;;;;;;0.50;0.10;;;-0.90;1.00;;;;;;4973042;28;20446;-65
2021/12/22 07:49:06;;;;;;;0.50;0.10;;;-0.90;1.00;;;;;;4972783;28;20480;-64
2021/12/22 07:51:34;;;;;;;0.50;0.10;;;-0.90;1.00;;;;;;4973723;28;20468;-65
2021/12/22 07:54:02;;;;;;;0.50;0.10;;;-0.90;1.00;;;;;;4986293;28;20471;-66
2021/12/22 07:56:31;;;;;;;0.50;0.10;;;-0.90;1.00;;;;;;4992758;28;20449;-66
2021/12/22 07:58:59;;;;;;;0.50;0.10;;;-0.90;1.00;;;;;;4991258;28;20476;-66
2021/12/22 08:01:26;;;;;;;0.50;0.10;;;-0.90;1.00;;;;;;4988839;28;20489;-66
2021/12/22 08:03:54;;;;;;;0.50;0.10;;;-0.90;1.00;;;;;;4989759;28;20444;-66
2021/12/22 08:06:24;;;;;;;0.50;0.10;;;-0.80;1.00;;;;;;4991667;28;20441;-66
2021/12/22 08:08:52;;;;;;;0.50;0.10;;;-0.90;1.00;;;;;;4991830;28;20465;-65
2021/12/22 08:11:19;;;;;;;0.50;0.10;;;-0.90;1.00;;;;;;4991995;28;20982;-66
2021/12/22 08:13:47;;;;;;;0.50;0.10;;;-0.90;1.00;;;;;;4987855;28;20572;-66
2021/12/22 08:16:17;;;;;;;0.50;0.10;;;;;;;;;;4972672;28;20442;-66
2021/12/22 08:18:45;;;;;;;0.50;0.10;;;-1.00;1.00;;;;;;4984706;28;20472;-66
2021/12/22 08:21:13;;;;;;;0.50;0.30;;;-0.90;1.00;;;;;;4985318;28;20443;-65
2021/12/22 08:23:42;;;;;;;0.50;0.10;;;-1.00;1.00;;;;;;4997643;28;20471;-65
2021/12/22 08:26:10;;;;;;;0.50;0.20;;;-0.90;1.00;;;;;;4995909;28;20456;-66
2021/12/22 08:28:38;;;;;;;0.50;0.10;;;-0.90;1.00;;;;;;4995796;28;20836;-67
2021/12/22 08:31:08;;;;;;;0.50;0.10;;;-0.90;1.00;;;;;;4994112;28;20551;-66
2021/12/22 08:33:43;;;;;;;0.50;0.30;;;-0.90;1.00;;;;;;4995181;28;20437;-66
2021/12/22 08:39:01;;;;;;;0.50;0.10;;;-0.80;1.00;;;;;;4992511;28;20861;-65
2021/12/22 08:41:32;;;;;;;0.50;0.10;;;-0.80;1.00;;;;;;4996922;28;20437;-66
2021/12/22 08:44:03;;;;;;;0.50;0.10;;;-0.70;1.00;;;;;;4995345;28;20474;-65
2021/12/22 08:46:32;;;;;;;0.50;0.10;;;-0.70;1.00;;;;;;4991548;28;20536;-65
2021/12/22 08:49:01;;;;;;;0.60;0.23;;;-0.60;1.00;;;;;;4994723;28;20481;-65
2021/12/22 08:51:30;;;;;;;0.50;0.10;;;-0.60;1.00;;;;;;4994686;28;20947;-65
2021/12/22 08:54:00;;;;;;;0.50;0.10;;;-0.50;1.00;;;;;;4995509;28;20441;-64
2021/12/22 08:56:29;;;;;;;0.50;0.10;;;-0.50;1.00;;;;;;4995379;28;20632;-64
2021/12/22 08:58:58;;;;;;;0.50;0.10;;;-0.50;1.00;;;;;;4995648;28;20464;-64
2021/12/22 09:01:27;;;;;;;0.50;0.10;;;-0.50;1.00;;;;;;4995648;28;20809;-64
2021/12/22 09:03:56;;;;;;;0.50;0.10;;;-0.40;1.00;;;;;;4988704;28;20482;-65
2021/12/22 09:06:24;;;;;;;0.50;0.10;;;-0.40;1.00;;;;;;4976188;28;20812;-65
2021/12/22 09:08:52;;;;;;;0.50;0.10;;;-0.40;1.00;;;;;;4976223;28;21015;-65
2021/12/22 09:11:22;;;;;;;0.50;0.10;;;-0.30;1.00;;;;;;4976325;28;20457;-65
2021/12/22 09:13:52;;;;;;;0.50;0.10;;;-0.20;1.00;;;;;;4983622;28;20471;-66
2021/12/22 09:16:20;;;;;;;0.50;0.10;;;-0.20;1.00;;;;;;4994755;28;20835;-64
2021/12/22 09:18:48;;;;;;;0.50;0.10;;;-0.20;1.00;;;;;;4993004;28;20469;-65
2021/12/22 09:21:17;;;;;;;0.50;0.10;;;-0.10;1.00;;;;;;4980665;28;20488;-66
2021/12/22 09:23:44;;;;;;;0.50;0.10;;;-0.10;1.00;;;;;;4974214;28;20872;-67
2021/12/22 09:26:12;;;;;;;0.50;0.10;;;-0.10;1.00;;;;;;4975193;28;20446;-66
2021/12/22 09:28:42;;;;;;;0.50;0.10;;;0.00;1.00;;;;;;4975253;28;20476;-65
2021/12/22 09:31:12;;;;;;;0.50;0.10;;;0.00;1.00;;;;;;4975517;28;20824;-64
2021/12/22 09:33:40;;;;;;;0.50;0.10;;;0.10;1.00;;;;;;4975466;28;21052;-65
2021/12/22 09:36:11;;;;;;;0.50;0.10;;;0.20;1.00;;;;;;4975013;28;20446;-66
2021/12/22 09:38:39;;;;;;;0.50;0.10;;;0.20;1.00;;;;;;4976999;28;20474;-64
2021/12/22 09:41:08;;;;;;;0.50;0.10;;;0.20;1.00;;;;;;4975509;28;20450;-65
2021/12/22 09:43:36;;;;;;;0.50;0.10;;;0.20;1.00;;;;;;4975145;28;20485;-65
2021/12/22 09:46:09;;;;;;;0.50;0.10;;;0.20;1.00;;;;;;4974716;28;20458;-65
2021/12/22 09:48:49;;;;;;;0.50;0.10;;;0.30;1.00;;;;;;4975004;28;20573;-66
2021/12/22 09:54:08;;;;;;;0.50;0.10;;;0.20;1.00;;;;;;4976361;28;20468;-64
2021/12/22 09:56:41;;;;;;;0.50;0.10;;;0.30;1.00;;;;;;4975079;28;20933;-64
2021/12/22 09:59:10;;;;;;;8.40;7.90;;;0.30;1.00;;;;;;4974744;28;20993;-66
2021/12/22 10:01:40;;;;;;;0.50;0.10;;;0.40;1.00;;;;;;4975069;28;20949;-66
2021/12/22 10:04:09;;;;;;;0.60;0.30;;;0.40;1.00;;;;;;4974809;28;20569;-64
2021/12/22 10:06:37;;;;;;;0.50;0.20;;;0.50;1.00;;;;;;4974667;28;20468;-67
2021/12/22 10:09:06;;;;;;;0.50;0.10;;;0.60;1.00;;;;;;4974731;28;20468;-65
2021/12/22 10:11:43;;;;;;;0.50;0.10;;;0.60;1.00;;;;;;4975723;28;20843;-66
2021/12/22 10:14:19;;;;;;;0.50;0.10;;;0.60;1.00;;;;;;4974007;28;20973;-67
2021/12/22 10:16:51;;;;;;;0.50;0.10;;;0.60;1.00;;;;;;4975049;28;20529;-66
2021/12/22 10:19:20;;;;;;;0.50;0.10;;;0.70;1.00;;;;;;4974491;28;20467;-66
2021/12/22 10:21:53;;;;;;;0.50;0.20;;;0.70;1.00;;;;;;4974794;28;20758;-66
2021/12/22 10:24:34;;;;;;;0.50;0.10;;;0.80;1.00;;;;;;4973826;28;20527;-67
2021/12/22 10:27:04;;;;;;;0.50;0.10;;;0.90;1.00;;;;;;4984409;28;20819;-66
2021/12/22 10:29:34;;;;;;;0.50;0.10;;;0.90;1.00;;;;;;4982930;28;20442;-66
2021/12/22 10:32:10;;;;;;;0.50;0.10;;;0.90;1.00;;;;;;4992973;28;20457;-67
2021/12/22 10:34:57;;;;;;;1.80;0.87;;;1.00;1.00;;;;;;4973313;28;20442;-66
2021/12/22 10:37:36;;;;;;;0.50;0.10;;;1.10;1.00;;;;;;4974814;28;20833;-65
2021/12/22 10:40:23;;;;;;;0.50;0.10;;;1.10;1.00;;;;;;4974909;28;20442;-65
2021/12/22 10:42:51;;;;;;;0.50;0.10;;;1.20;1.00;;;;;;4974566;28;20513;-64
2021/12/22 10:45:20;;;;;;;0.50;0.10;;;1.20;1.00;;;;;;4973961;28;20540;-67
2021/12/22 10:50:37;;;;;;;0.50;0.10;;;1.20;1.00;;;;;;4974702;28;20448;-65
2021/12/22 10:53:06;;;;;;;0.50;0.10;;;1.20;1.00;;;;;;4974844;28;20448;-65
2021/12/22 10:55:39;;;;;;;0.50;0.10;;;1.20;1.00;;;;;;4974199;28;20454;-66
2021/12/22 10:58:20;;;;;;;0.50;0.10;;;1.20;1.00;;;;;;4973678;28;21020;-66
2021/12/22 11:01:05;;;;;;;0.50;0.10;;;1.20;1.00;;;;;;4974585;28;20450;-65
2021/12/22 11:03:40;;;;;;;0.50;0.10;;;1.20;1.00;;;;;;4972874;28;20486;-66
2021/12/22 11:06:13;;;;;;;0.50;0.10;;;1.30;1.00;;;;;;4973413;28;20451;-65
2021/12/22 11:08:41;;;;;;;0.50;0.10;;;1.40;1.00;;;;;;4973556;28;20525;-70
2021/12/22 11:11:15;;;;;;;0.50;0.10;;;1.40;1.00;;;;;;4973622;28;20449;-66
2021/12/22 11:13:43;;;;;;;0.50;0.10;;;1.50;1.00;;;;;;4973366;28;20438;-66
2021/12/22 11:16:13;;;;;;;0.50;0.10;;;1.50;1.00;;;;;;4974690;28;20442;-68
2021/12/22 11:18:42;;;;;;;5.03;3.83;;;1.50;1.00;;;;;;4990708;28;20477;-68
2021/12/22 11:21:15;;;;;;;0.50;0.10;;;1.60;1.00;;;;;;4992462;28;20449;-66
2021/12/22 11:23:44;;;;;;;0.73;0.73;;;1.60;1.00;;;;;;4991154;28;20571;-68
2021/12/22 11:26:13;;;;;;;0.50;0.10;;;1.70;1.00;;;;;;4992543;28;20454;-67
2021/12/22 11:28:41;;;;;;;0.50;0.10;;;1.70;1.00;;;;;;4991953;28;20465;-67
2021/12/22 11:31:10;;;;;;;0.50;0.10;;;1.80;1.00;;;;;;4992571;28;20455;-66
2021/12/22 11:33:47;;;;;;;0.50;0.10;;;1.80;1.00;;;;;;4982951;28;20445;-66
2021/12/22 11:36:15;;;;;;;0.50;0.10;;;1.80;1.00;;;;;;4972240;28;20945;-66
2021/12/22 11:38:43;;;;;;;0.50;0.10;;;1.90;1.00;;;;;;4972740;28;20475;-67
2021/12/22 11:41:14;;;;;;;0.50;0.10;;;1.90;1.00;;;;;;4972449;28;20441;-66
2021/12/22 11:43:43;;;;;;;0.50;0.10;;;1.90;1.00;;;;;;4972708;28;20487;-67
2021/12/22 11:46:12;;;;;;;0.50;0.10;;;1.90;1.00;;;;;;4972856;28;20441;-67
2021/12/22 11:48:41;;;;;;;0.50;0.10;;;1.90;1.00;;;;;;4972693;28;20500;-68
2021/12/22 11:51:25;;;;;;;0.50;0.10;;;1.90;1.00;;;;;;4985914;28;20446;-66
2021/12/22 11:53:54;;;;;;;0.50;0.10;;;2.00;1.00;;;;;;4988252;28;20454;-67
2021/12/22 11:56:40;;;;;;;0.50;0.10;;;2.00;1.00;;;;;;4992614;28;20487;-66
2021/12/22 11:59:32;;;;;;;1.13;1.07;;;2.00;1.00;;;;;;4994327;28;20541;-66
2021/12/22 12:02:21;;;;;;;0.50;0.10;;;2.10;1.00;;;;;;4996368;28;20454;-67
2021/12/22 12:04:52;;;;;;;0.50;0.10;;;2.20;1.00;;;;;;4996327;28;20484;-66
2021/12/22 12:07:48;;;;;;;0.50;0.20;;;2.20;1.00;;;;;;4995286;28;20473;-66
2021/12/22 12:10:47;;;;;;;0.50;0.10;;;2.20;1.00;;;;;;4977026;28;20933;-68
2021/12/22 12:13:53;;;;;;;0.50;0.10;;;2.20;1.00;;;;;;4977605;28;20528;-67
2021/12/22 12:22:09;;;;;;;0.50;0.33;;;2.20;1.00;;;;;;4995411;28;20549;-66
2021/12/22 12:25:04;;;;;;;0.50;0.10;;;2.30;1.00;;;;;;4994606;28;20841;-66
2021/12/22 12:27:41;;;;;;;0.50;0.20;;;2.30;1.00;;;;;;4983920;28;20481;-67
2021/12/22 12:30:13;;;;;;;0.50;0.10;;;2.30;1.00;;;;;;4995146;28;20448;-67
2021/12/22 12:33:07;;;;;;;0.50;0.10;;;2.40;1.00;;;;;;4994944;28;20442;-67
2021/12/22 12:35:37;;;;;;;0.50;0.10;;;2.40;1.00;;;;;;4991946;28;20938;-67
2021/12/22 12:38:14;;;;;;;0.50;0.10;;;2.40;1.00;;;;;;4995354;28;20461;-66
2021/12/22 12:41:11;;;;;;;0.50;0.10;;;2.40;1.00;;;;;;4995075;28;20445;-67
2021/12/22 12:43:56;;;;;;;0.50;0.10;;;2.50;1.00;;;;;;4989808;28;20530;-69
2021/12/22 12:46:43;;;;;;;0.50;0.10;;;2.50;1.00;;;;;;4995091;28;20444;-68
2021/12/22 12:49:33;;;;;;;0.50;0.10;;;2.50;1.00;;;;;;4994829;28;20469;-68
2021/12/22 12:52:06;;;;;;;0.50;0.10;;;2.40;1.00;;;;;;4995051;28;20447;-66
2021/12/22 12:54:39;;;;;;;0.50;0.30;;;2.50;1.00;;;;;;4991827;28;20824;-67
2021/12/22 12:57:27;;;;;;;0.50;0.10;;;2.50;1.00;;;;;;4992215;28;20453;-67
2021/12/22 13:00:06;;;;;;;0.50;0.10;;;2.50;1.00;;;;;;4992244;28;20560;-65
2021/12/22 13:02:39;;;;;;;0.50;0.20;;;;;;;;;;4992905;28;20454;-66
2021/12/22 13:05:12;;;;;;;0.50;0.10;;;2.50;1.00;;;;;;4991854;28;20491;-66
2021/12/22 13:07:40;;;;;;;0.50;0.10;;;2.60;1.00;;;;;;4994433;28;20523;-65
2021/12/22 13:10:15;;;;;;;0.50;0.10;;;2.60;1.00;;;;;;4992129;28;20453;-66
2021/12/22 13:13:01;;;;;;;0.50;0.10;;;2.60;1.00;;;;;;4991249;28;20457;-66
2021/12/22 13:15:46;;;;;;;0.50;0.10;;;2.70;1.00;;;;;;4988549;28;20454;-66
2021/12/22 13:18:28;;;;;;;0.50;0.10;;;2.80;1.00;;;;;;4990997;28;20516;-67
2021/12/22 13:21:06;;;;;;;0.50;0.10;;;2.80;1.00;;;;;;4981369;28;20468;-66
2021/12/22 13:23:34;;;;;;;0.50;0.10;;;2.80;1.00;;;;;;4993076;28;20553;-66
2021/12/22 13:26:03;;;;;;;0.50;0.10;;;2.90;1.00;;;;;;4993867;28;20991;-66
2021/12/22 13:28:35;;;;;;;0.50;0.17;;;3.10;1.00;;;;;;4993778;28;20466;-67
2021/12/22 13:31:05;;;;;;;0.50;0.10;;;3.10;1.00;;;;;;4993265;28;20448;-66
2021/12/22 13:33:35;;;;;;;0.50;0.10;;;3.10;1.00;;;;;;4986736;28;20517;-67
2021/12/22 13:36:07;;;;;;;0.50;0.10;;;3.10;1.00;;;;;;4990480;28;20466;-65
2021/12/22 13:38:37;;;;;;;0.50;0.10;;;3.10;1.00;;;;;;4994605;28;21190;-67
2021/12/22 13:41:06;;;;;;;0.50;0.10;;;3.20;1.00;;;;;;4994277;28;20446;-67